createdAt,value
2023-02-01T00:00:24.414Z,0.00
2023-02-01T00:01:23.106Z,0.00
2023-02-01T00:02:23.139Z,0.00
2023-02-01T00:03:23.029Z,0.00
2023-02-01T00:04:22.951Z,0.00
2023-02-01T00:05:23.153Z,0.00
2023-02-01T00:06:22.947Z,0.00
2023-02-01T00:07:22.822Z,0.00
2023-02-01T00:08:25.007Z,0.00
2023-02-01T00:09:22.885Z,0.00
2023-02-01T00:10:23.167Z,0.00
2023-02-01T00:11:22.625Z,0.00
2023-02-01T00:12:23.807Z,0.00
2023-02-01T00:13:22.524Z,0.00
2023-02-01T00:14:22.591Z,0.00
2023-02-01T00:15:25.896Z,0.00
2023-02-01T00:16:22.378Z,0.00
2023-02-01T00:17:23.431Z,0.00
2023-02-01T00:18:22.282Z,0.00
2023-02-01T00:19:22.433Z,0.00
2023-02-01T00:20:22.476Z,0.00
2023-02-01T00:21:24.282Z,0.00
2023-02-01T00:22:22.095Z,0.00
2023-02-01T00:23:22.188Z,0.00
2023-02-01T00:24:22.009Z,0.00
2023-02-01T00:25:22.069Z,0.00
2023-02-01T00:26:21.907Z,0.00
2023-02-01T00:27:23.243Z,0.00
2023-02-01T00:28:21.832Z,0.00
2023-02-01T00:29:22.910Z,0.00
2023-02-01T00:30:22.034Z,0.00
2023-02-01T00:31:23.066Z,0.00
2023-02-01T00:32:21.614Z,0.00
2023-02-01T00:33:22.737Z,0.00
2023-02-01T00:34:22.805Z,0.00
2023-02-01T00:35:21.730Z,0.00
2023-02-01T00:36:21.427Z,0.00
2023-02-01T00:37:21.379Z,0.00
2023-02-01T00:38:21.326Z,0.00
2023-02-01T00:39:21.503Z,0.00
2023-02-01T00:40:21.451Z,0.00
2023-02-01T00:41:22.330Z,0.00
2023-02-01T00:42:21.132Z,0.00
2023-02-01T00:43:21.081Z,0.00
2023-02-01T00:44:23.224Z,0.00
2023-02-01T00:45:20.974Z,0.00
2023-02-01T00:46:22.490Z,0.00
2023-02-01T00:47:20.886Z,0.00
2023-02-01T00:48:20.854Z,0.00
2023-02-01T00:49:20.787Z,0.00
2023-02-01T00:50:21.352Z,0.00
2023-02-01T00:51:20.697Z,0.00
2023-02-01T00:52:21.787Z,0.00
2023-02-01T00:53:20.593Z,0.00
2023-02-01T00:54:20.551Z,0.00
2023-02-01T00:55:20.639Z,0.00
2023-02-01T00:56:20.469Z,0.00
2023-02-01T00:57:20.655Z,0.00
2023-02-01T00:58:20.505Z,0.00
2023-02-01T00:59:20.301Z,0.00
2023-02-01T01:00:20.566Z,0.00
2023-02-01T01:01:20.481Z,0.00
2023-02-01T01:02:20.221Z,0.00
2023-02-01T01:03:21.314Z,0.00
2023-02-01T01:04:20.076Z,0.00
2023-02-01T01:05:20.041Z,0.00
2023-02-01T01:06:20.107Z,0.00
2023-02-01T01:07:19.918Z,0.00
2023-02-01T01:08:20.122Z,0.00
2023-02-01T01:09:19.971Z,0.00
2023-02-01T01:10:20.067Z,0.00
2023-02-01T01:11:19.726Z,0.00
2023-02-01T01:12:20.804Z,0.00
2023-02-01T01:13:19.626Z,0.00
2023-02-01T01:14:21.800Z,0.00
2023-02-01T01:15:19.556Z,0.00
2023-02-01T01:16:19.527Z,0.00
2023-02-01T01:17:19.574Z,0.00
2023-02-01T01:18:19.385Z,0.00
2023-02-01T01:19:20.626Z,0.00
2023-02-01T01:20:19.611Z,0.00
2023-02-01T01:21:19.453Z,0.00
2023-02-01T01:22:19.189Z,0.00
2023-02-01T01:23:21.260Z,0.00
2023-02-01T01:24:19.087Z,0.00
2023-02-01T01:25:20.242Z,0.00
2023-02-01T01:26:19.089Z,0.00
2023-02-01T01:27:18.967Z,0.00
2023-02-01T01:28:19.139Z,0.00
2023-02-01T01:29:18.857Z,0.00
2023-02-01T01:30:20.364Z,0.00
2023-02-01T01:31:18.760Z,0.00
2023-02-01T01:32:18.732Z,0.00
2023-02-01T01:33:18.943Z,0.00
2023-02-01T01:34:18.891Z,0.00
2023-02-01T01:35:18.558Z,0.00
2023-02-01T01:36:18.614Z,0.00
2023-02-01T01:37:18.469Z,0.00
2023-02-01T01:38:18.406Z,0.00
2023-02-01T01:39:18.436Z,0.00
2023-02-01T01:40:28.932Z,0.00
2023-02-01T01:41:25.973Z,0.00
2023-02-01T01:42:26.009Z,0.00
2023-02-01T01:43:25.515Z,0.00
2023-02-01T01:44:26.577Z,0.00
2023-02-01T01:47:04.545Z,0.00
2023-02-01T01:48:04.582Z,0.00
2023-02-01T01:50:36.971Z,0.00
2023-02-01T01:51:36.013Z,0.00
2023-02-01T01:52:36.062Z,0.00
2023-02-01T01:55:15.120Z,0.00
2023-02-01T01:56:16.659Z,0.00
2023-02-01T01:57:09.117Z,0.00
2023-02-01T01:58:06.896Z,0.00
2023-02-01T01:59:07.079Z,0.00
2023-02-01T02:00:07.013Z,0.00
2023-02-01T02:01:06.810Z,0.00
2023-02-01T02:02:06.946Z,0.00
2023-02-01T02:03:06.650Z,0.00
2023-02-01T02:04:06.708Z,0.00
2023-02-01T02:05:06.544Z,0.00
2023-02-01T02:06:06.731Z,0.00
2023-02-01T02:07:06.787Z,0.00
2023-02-01T02:08:06.536Z,0.00
2023-02-01T02:09:07.177Z,0.00
2023-02-01T02:10:06.546Z,0.00
2023-02-01T02:11:06.253Z,0.00
2023-02-01T02:12:07.383Z,0.00
2023-02-01T02:13:06.186Z,0.00
2023-02-01T02:14:06.370Z,0.00
2023-02-01T02:15:06.064Z,0.00
2023-02-01T02:16:07.253Z,0.00
2023-02-01T02:17:05.956Z,0.00
2023-02-01T02:18:07.015Z,0.00
2023-02-01T02:19:06.057Z,0.00
2023-02-01T02:20:06.006Z,0.00
2023-02-01T02:21:05.764Z,0.00
2023-02-01T02:22:05.716Z,0.00
2023-02-01T02:23:05.663Z,0.00
2023-02-01T02:24:05.830Z,0.00
2023-02-01T02:25:05.688Z,0.00
2023-02-01T02:26:05.656Z,0.00
2023-02-01T02:27:05.467Z,0.00
2023-02-01T02:28:05.424Z,0.00
2023-02-01T02:29:06.480Z,0.00
2023-02-01T02:30:05.321Z,0.00
2023-02-01T02:31:06.666Z,0.00
2023-02-01T02:32:05.225Z,0.00
2023-02-01T02:33:05.180Z,0.00
2023-02-01T02:34:06.314Z,0.00
2023-02-01T02:35:05.077Z,0.00
2023-02-01T02:36:05.215Z,0.00
2023-02-01T02:37:05.041Z,0.00
2023-02-01T02:38:05.116Z,0.00
2023-02-01T02:39:04.893Z,0.00
2023-02-01T02:40:05.139Z,0.00
2023-02-01T02:41:04.789Z,0.00
2023-02-01T02:42:04.936Z,0.00
2023-02-01T02:43:07.051Z,0.00
2023-02-01T02:44:04.637Z,0.00
2023-02-01T02:45:04.614Z,0.00
2023-02-01T02:46:04.825Z,0.00
2023-02-01T02:47:04.501Z,0.00
2023-02-01T02:48:04.571Z,0.00
2023-02-01T02:49:04.399Z,0.00
2023-02-01T02:50:04.349Z,0.00
2023-02-01T02:51:06.645Z,0.00
2023-02-01T02:52:04.253Z,0.00
2023-02-01T02:53:04.408Z,0.00
2023-02-01T02:54:04.169Z,0.00
2023-02-01T02:55:04.109Z,0.00
2023-02-01T02:56:04.074Z,0.00
2023-02-01T02:57:04.156Z,0.00
2023-02-01T02:58:03.964Z,0.00
2023-02-01T02:59:03.951Z,0.00
2023-02-01T03:00:03.866Z,0.00
2023-02-01T03:01:03.854Z,0.00
2023-02-01T03:02:03.969Z,0.00
2023-02-01T03:03:03.724Z,0.00
2023-02-01T03:04:03.784Z,0.00
2023-02-01T03:05:03.626Z,0.00
2023-02-01T03:06:03.582Z,0.00
2023-02-01T03:07:03.528Z,0.00
2023-02-01T03:08:03.607Z,0.00
2023-02-01T03:09:03.433Z,0.00
2023-02-01T03:10:03.413Z,0.00
2023-02-01T03:11:03.337Z,0.00
2023-02-01T03:12:03.291Z,0.00
2023-02-01T03:13:03.448Z,0.00
2023-02-01T03:14:03.379Z,0.00
2023-02-01T03:15:03.350Z,0.00
2023-02-01T03:16:03.112Z,0.00
2023-02-01T03:17:03.068Z,0.00
2023-02-01T03:18:02.992Z,0.00
2023-02-01T03:19:03.188Z,0.00
2023-02-01T03:20:03.007Z,0.00
2023-02-01T03:21:02.973Z,0.00
2023-02-01T03:22:02.798Z,0.00
2023-02-01T03:23:02.767Z,0.00
2023-02-01T03:24:03.027Z,0.00
2023-02-01T03:25:02.654Z,0.00
2023-02-01T03:26:04.035Z,0.00
2023-02-01T03:27:02.559Z,0.00
2023-02-01T03:28:02.818Z,0.00
2023-02-01T03:29:02.458Z,0.00
2023-02-01T03:30:02.635Z,0.00
2023-02-01T03:31:02.414Z,0.00
2023-02-01T03:32:04.425Z,0.00
2023-02-01T03:33:02.507Z,0.00
2023-02-01T03:34:02.242Z,0.00
2023-02-01T03:35:02.164Z,0.00
2023-02-01T03:36:02.282Z,0.00
2023-02-01T03:37:02.064Z,0.00
2023-02-01T03:38:02.287Z,0.00
2023-02-01T03:39:02.142Z,0.00
2023-02-01T03:40:02.102Z,0.00
2023-02-01T03:41:01.873Z,0.00
2023-02-01T03:42:02.108Z,0.00
2023-02-01T03:43:01.779Z,0.00
2023-02-01T03:44:03.964Z,0.00
2023-02-01T03:45:01.679Z,0.00
2023-02-01T03:46:01.991Z,0.00
2023-02-01T03:47:01.620Z,0.00
2023-02-01T03:48:06.041Z,0.00
2023-02-01T03:49:01.477Z,0.00
2023-02-01T03:50:01.494Z,0.00
2023-02-01T03:51:01.387Z,0.00
2023-02-01T03:52:01.628Z,0.00
2023-02-01T03:53:01.281Z,0.00
2023-02-01T03:54:01.371Z,0.00
2023-02-01T03:55:01.206Z,0.00
2023-02-01T03:56:01.135Z,0.00
2023-02-01T03:57:02.320Z,0.00
2023-02-01T03:58:01.055Z,0.00
2023-02-01T03:59:01.327Z,0.00
2023-02-01T04:00:02.209Z,0.00
2023-02-01T04:01:00.968Z,0.00
2023-02-01T04:02:00.870Z,0.00
2023-02-01T04:03:00.951Z,0.00
2023-02-01T04:04:00.741Z,0.00
2023-02-01T04:05:00.937Z,0.00
2023-02-01T04:06:00.660Z,0.00
2023-02-01T04:07:00.601Z,0.00
2023-02-01T04:08:00.760Z,0.00
2023-02-01T04:09:00.502Z,0.00
2023-02-01T04:10:02.623Z,0.00
2023-02-01T04:11:01.758Z,0.00
2023-02-01T04:12:01.400Z,0.00
2023-02-01T04:13:00.303Z,0.00
2023-02-01T04:14:00.495Z,0.00
2023-02-01T04:15:00.207Z,0.00
2023-02-01T04:16:01.330Z,0.00
2023-02-01T04:17:00.135Z,0.00
2023-02-01T04:18:00.068Z,0.00
2023-02-01T04:19:00.016Z,0.00
2023-02-01T04:20:02.174Z,0.00
2023-02-01T04:21:00.095Z,0.00
2023-02-01T04:22:00.152Z,0.00
2023-02-01T04:22:59.812Z,0.00
2023-02-01T04:24:00.980Z,0.00
2023-02-01T04:24:59.718Z,0.00
2023-02-01T04:26:00.786Z,0.00
2023-02-01T04:26:59.715Z,0.00
2023-02-01T04:27:59.780Z,0.00
2023-02-01T04:29:01.724Z,0.00
2023-02-01T04:29:59.472Z,0.00
2023-02-01T04:30:59.782Z,0.00
2023-02-01T04:31:59.372Z,0.00
2023-02-01T04:33:00.734Z,0.00
2023-02-01T04:34:07.726Z,0.00
2023-02-01T04:35:08.309Z,0.00
2023-02-01T04:36:06.807Z,0.00
2023-02-01T04:37:00.157Z,0.00
2023-02-01T04:37:59.087Z,0.00
2023-02-01T04:38:59.055Z,0.00
2023-02-01T04:39:58.978Z,0.00
2023-02-01T04:40:58.931Z,0.00
2023-02-01T04:41:59.983Z,0.00
2023-02-01T04:42:58.841Z,0.00
2023-02-01T04:43:58.977Z,0.00
2023-02-01T04:44:58.825Z,0.00
2023-02-01T04:45:58.850Z,0.00
2023-02-01T04:46:58.647Z,0.00
2023-02-01T04:47:58.814Z,0.00
2023-02-01T04:48:58.541Z,0.00
2023-02-01T04:49:58.631Z,0.00
2023-02-01T04:50:58.615Z,0.00
2023-02-01T04:51:58.403Z,0.00
2023-02-01T04:52:59.450Z,0.00
2023-02-01T04:53:58.294Z,0.00
2023-02-01T04:54:59.565Z,0.00
2023-02-01T04:55:58.201Z,0.00
2023-02-01T04:56:58.459Z,0.00
2023-02-01T04:57:58.103Z,0.00
2023-02-01T04:59:19.146Z,0.00
2023-02-01T04:59:58.009Z,0.00
2023-02-01T05:00:58.163Z,0.00
2023-02-01T05:01:57.979Z,0.00
2023-02-01T05:02:57.880Z,0.00
2023-02-01T05:03:58.019Z,0.00
2023-02-01T05:04:57.938Z,0.00
2023-02-01T05:05:58.828Z,0.00
2023-02-01T05:06:57.669Z,0.00
2023-02-01T05:07:57.620Z,0.00
2023-02-01T05:08:57.624Z,0.00
2023-02-01T05:09:57.524Z,0.00
2023-02-01T05:10:57.648Z,0.00
2023-02-01T05:11:57.485Z,0.00
2023-02-01T05:12:57.377Z,0.00
2023-02-01T05:13:57.340Z,0.00
2023-02-01T05:14:57.462Z,0.00
2023-02-01T05:15:57.293Z,0.00
2023-02-01T05:16:58.296Z,0.00
2023-02-01T05:17:57.160Z,0.00
2023-02-01T05:18:57.114Z,0.00
2023-02-01T05:19:57.090Z,0.00
2023-02-01T05:20:56.999Z,0.00
2023-02-01T05:21:57.108Z,0.00
2023-02-01T05:22:56.900Z,0.00
2023-02-01T05:23:57.990Z,0.00
2023-02-01T05:24:56.797Z,0.00
2023-02-01T05:25:58.975Z,0.00
2023-02-01T05:26:56.703Z,0.00
2023-02-01T05:27:56.738Z,0.00
2023-02-01T05:28:56.607Z,0.00
2023-02-01T05:29:56.585Z,0.00
2023-02-01T05:30:56.631Z,0.00
2023-02-01T05:31:57.165Z,0.00
2023-02-01T05:32:56.567Z,0.00
2023-02-01T05:33:56.363Z,0.00
2023-02-01T05:34:56.319Z,0.00
2023-02-01T05:35:56.436Z,0.00
2023-02-01T05:36:56.396Z,0.00
2023-02-01T05:37:56.182Z,0.00
2023-02-01T05:38:56.204Z,0.00
2023-02-01T05:39:56.093Z,0.00
2023-02-01T05:40:56.027Z,0.00
2023-02-01T05:41:57.146Z,0.00
2023-02-01T05:42:55.928Z,0.00
2023-02-01T05:43:55.933Z,0.00
2023-02-01T05:44:55.995Z,0.00
2023-02-01T05:45:55.882Z,0.00
2023-02-01T05:46:55.742Z,0.00
2023-02-01T05:47:56.785Z,0.00
2023-02-01T05:48:55.653Z,0.00
2023-02-01T05:49:58.035Z,0.00
2023-02-01T05:50:55.543Z,0.00
2023-02-01T05:51:55.489Z,0.00
2023-02-01T05:52:56.616Z,0.00
2023-02-01T05:53:55.395Z,0.00
2023-02-01T05:54:57.452Z,0.00
2023-02-01T05:55:55.313Z,0.00
2023-02-01T05:56:55.261Z,0.00
2023-02-01T05:57:55.205Z,0.00
2023-02-01T05:58:55.229Z,0.00
2023-02-01T05:59:55.104Z,0.00
2023-02-01T06:03:48.580Z,0.00
2023-02-01T06:04:47.286Z,0.00
2023-02-01T06:05:47.289Z,0.00
2023-02-01T06:06:47.190Z,0.00
2023-02-01T06:07:47.133Z,0.00
2023-02-01T06:08:47.087Z,0.00
2023-02-01T06:09:49.180Z,0.00
2023-02-01T06:10:46.992Z,0.00
2023-02-01T06:11:47.127Z,0.00
2023-02-01T06:12:46.891Z,0.00
2023-02-01T06:13:46.838Z,0.00
2023-02-01T06:14:47.874Z,0.00
2023-02-01T06:15:46.949Z,0.00
2023-02-01T06:16:46.760Z,0.00
2023-02-01T06:17:46.663Z,0.00
2023-02-01T06:18:46.591Z,0.00
2023-02-01T06:19:46.543Z,0.00
2023-02-01T06:20:46.585Z,0.00
2023-02-01T06:21:46.446Z,0.00
2023-02-01T06:22:46.595Z,0.00
2023-02-01T06:23:46.443Z,0.00
2023-02-01T06:24:46.302Z,0.00
2023-02-01T06:25:46.249Z,0.00
2023-02-01T06:26:46.523Z,0.00
2023-02-01T06:27:46.184Z,0.00
2023-02-01T06:28:46.241Z,0.00
2023-02-01T06:29:46.088Z,0.00
2023-02-01T06:30:46.030Z,0.00
2023-02-01T06:31:46.232Z,0.00
2023-02-01T06:32:45.944Z,0.00
2023-02-01T06:33:45.962Z,0.00
2023-02-01T06:34:45.819Z,0.00
2023-02-01T06:35:46.079Z,0.00
2023-02-01T06:36:45.715Z,0.00
2023-02-01T06:37:46.914Z,0.00
2023-02-01T06:38:45.625Z,0.00
2023-02-01T06:39:45.695Z,0.00
2023-02-01T06:40:45.522Z,0.00
2023-02-01T06:41:45.716Z,0.00
2023-02-01T06:42:46.589Z,0.00
2023-02-01T06:43:45.523Z,5.63
2023-02-01T06:44:45.330Z,5.63
2023-02-01T06:45:45.334Z,5.63
2023-02-01T06:46:45.308Z,5.63
2023-02-01T06:47:45.180Z,5.63
2023-02-01T06:48:45.410Z,5.63
2023-02-01T06:49:45.362Z,11.25
2023-02-01T06:50:45.037Z,11.25
2023-02-01T06:51:45.176Z,11.25
2023-02-01T06:52:44.974Z,11.25
2023-02-01T06:53:44.891Z,11.25
2023-02-01T06:54:44.989Z,11.25
2023-02-01T06:55:46.071Z,11.25
2023-02-01T06:56:45.819Z,11.25
2023-02-01T06:57:44.717Z,11.25
2023-02-01T06:58:44.811Z,11.25
2023-02-01T06:59:44.610Z,16.88
2023-02-01T07:00:44.700Z,16.88
2023-02-01T07:01:44.546Z,16.88
2023-02-01T07:02:44.842Z,16.88
2023-02-01T07:03:44.413Z,16.88
2023-02-01T07:04:44.357Z,16.88
2023-02-01T07:05:44.308Z,16.88
2023-02-01T07:06:44.459Z,16.88
2023-02-01T07:07:44.239Z,16.88
2023-02-01T07:08:44.272Z,22.50
2023-02-01T07:09:44.117Z,22.50
2023-02-01T07:10:44.080Z,22.50
2023-02-01T07:11:44.022Z,22.50
2023-02-01T07:12:44.106Z,22.50
2023-02-01T07:13:43.921Z,22.50
2023-02-01T07:14:44.107Z,22.50
2023-02-01T07:15:43.827Z,22.50
2023-02-01T07:16:43.778Z,22.50
2023-02-01T07:17:43.739Z,22.50
2023-02-01T07:18:43.939Z,28.13
2023-02-01T07:19:43.634Z,28.13
2023-02-01T07:20:43.748Z,28.13
2023-02-01T07:21:43.537Z,28.13
2023-02-01T07:22:43.494Z,28.13
2023-02-01T07:23:43.436Z,33.75
2023-02-01T07:24:43.570Z,33.75
2023-02-01T07:25:43.345Z,33.75
2023-02-01T07:26:43.614Z,33.75
2023-02-01T07:27:43.243Z,33.75
2023-02-01T07:28:43.204Z,39.38
2023-02-01T07:29:43.399Z,39.38
2023-02-01T07:30:43.123Z,39.38
2023-02-01T07:31:43.210Z,39.38
2023-02-01T07:32:43.498Z,45.00
2023-02-01T07:33:43.030Z,50.63
2023-02-01T07:34:42.910Z,56.25
2023-02-01T07:35:43.040Z,56.25
2023-02-01T07:36:42.807Z,56.25
2023-02-01T07:37:42.850Z,61.88
2023-02-01T07:38:42.907Z,61.88
2023-02-01T07:39:42.676Z,56.25
2023-02-01T07:40:42.613Z,56.25
2023-02-01T07:41:42.666Z,61.88
2023-02-01T07:42:42.520Z,67.50
2023-02-01T07:43:42.704Z,67.50
2023-02-01T07:44:42.420Z,73.13
2023-02-01T07:45:42.599Z,84.38
2023-02-01T07:46:42.351Z,101.25
2023-02-01T07:47:42.509Z,106.88
2023-02-01T07:48:42.228Z,106.88
2023-02-01T07:49:42.535Z,112.50
2023-02-01T07:50:42.132Z,123.75
2023-02-01T07:51:42.080Z,129.38
2023-02-01T07:52:42.144Z,129.38
2023-02-01T07:53:42.031Z,129.38
2023-02-01T07:54:42.151Z,135.00
2023-02-01T07:55:41.892Z,151.88
2023-02-01T07:56:41.960Z,180.00
2023-02-01T07:57:41.794Z,202.50
2023-02-01T07:58:49.891Z,208.13
2023-02-01T07:59:49.365Z,213.75
2023-02-01T08:00:49.468Z,213.75
2023-02-01T08:01:41.623Z,219.38
2023-02-01T08:02:41.552Z,241.88
2023-02-01T08:03:41.508Z,236.25
2023-02-01T08:04:41.609Z,225.00
2023-02-01T08:05:41.403Z,225.00
2023-02-01T08:06:41.426Z,208.13
2023-02-01T08:07:41.483Z,202.50
2023-02-01T08:08:41.259Z,225.00
2023-02-01T08:09:41.211Z,230.63
2023-02-01T08:10:41.247Z,208.13
2023-02-01T08:11:41.113Z,196.88
2023-02-01T08:12:41.257Z,191.25
2023-02-01T08:13:41.187Z,185.63
2023-02-01T08:14:40.968Z,185.63
2023-02-01T08:15:41.072Z,202.50
2023-02-01T08:16:40.914Z,236.25
2023-02-01T08:17:40.887Z,247.50
2023-02-01T08:18:40.767Z,253.13
2023-02-01T08:19:41.135Z,281.25
2023-02-01T08:20:40.905Z,360.00
2023-02-01T08:21:40.638Z,444.38
2023-02-01T08:22:40.725Z,444.38
2023-02-01T08:23:40.525Z,382.50
2023-02-01T08:24:40.736Z,360.00
2023-02-01T08:25:40.446Z,405.00
2023-02-01T08:26:40.419Z,416.25
2023-02-01T08:27:40.550Z,433.13
2023-02-01T08:28:40.285Z,461.25
2023-02-01T08:29:40.365Z,466.88
2023-02-01T08:30:40.274Z,489.38
2023-02-01T08:31:40.450Z,500.63
2023-02-01T08:32:40.094Z,472.50
2023-02-01T08:33:40.191Z,450.00
2023-02-01T08:34:39.996Z,478.13
2023-02-01T08:35:43.716Z,450.00
2023-02-01T08:36:39.903Z,444.38
2023-02-01T08:37:39.877Z,433.13
2023-02-01T08:38:39.808Z,360.00
2023-02-01T08:39:40.023Z,303.75
2023-02-01T08:40:39.722Z,286.88
2023-02-01T08:41:39.828Z,247.50
2023-02-01T08:42:39.614Z,241.88
2023-02-01T08:43:39.691Z,258.75
2023-02-01T08:44:39.522Z,236.25
2023-02-01T08:45:39.706Z,213.75
2023-02-01T08:46:39.420Z,196.88
2023-02-01T08:47:39.673Z,185.63
2023-02-01T08:48:39.332Z,168.75
2023-02-01T08:49:39.281Z,168.75
2023-02-01T08:50:39.231Z,174.38
2023-02-01T08:51:39.290Z,174.38
2023-02-01T08:52:39.349Z,208.13
2023-02-01T08:53:39.303Z,253.13
2023-02-01T08:54:39.036Z,337.50
2023-02-01T08:55:38.989Z,421.88
2023-02-01T08:56:39.155Z,528.75
2023-02-01T08:57:38.893Z,675.00
2023-02-01T08:58:39.139Z,770.63
2023-02-01T08:59:38.800Z,742.50
2023-02-01T09:00:38.954Z,731.25
2023-02-01T09:01:38.719Z,725.63
2023-02-01T09:02:38.757Z,708.75
2023-02-01T09:03:38.663Z,691.88
2023-02-01T09:04:38.983Z,663.75
2023-02-01T09:05:49.097Z,641.25
2023-02-01T09:06:38.583Z,596.25
2023-02-01T09:07:38.413Z,579.38
2023-02-01T09:08:38.601Z,545.63
2023-02-01T09:09:38.329Z,500.63
2023-02-01T09:10:38.738Z,455.63
2023-02-01T09:11:38.225Z,433.13
2023-02-01T09:12:38.173Z,438.75
2023-02-01T09:13:38.129Z,466.88
2023-02-01T09:14:38.252Z,506.25
2023-02-01T09:15:38.111Z,528.75
2023-02-01T09:16:38.244Z,568.13
2023-02-01T09:17:37.944Z,669.38
2023-02-01T09:18:45.916Z,765.00
2023-02-01T09:19:37.858Z,956.25
2023-02-01T09:20:38.072Z,675.00
2023-02-01T09:21:37.748Z,607.50
2023-02-01T09:22:37.880Z,675.00
2023-02-01T09:23:37.664Z,742.50
2023-02-01T09:24:37.612Z,675.00
2023-02-01T09:25:37.562Z,652.50
2023-02-01T09:26:37.804Z,652.50
2023-02-01T09:27:37.765Z,742.50
2023-02-01T09:28:37.721Z,759.38
2023-02-01T09:29:37.401Z,748.13
2023-02-01T09:30:37.742Z,669.38
2023-02-01T09:31:37.724Z,630.00
2023-02-01T09:32:37.383Z,562.50
2023-02-01T09:33:37.183Z,495.00
2023-02-01T09:34:37.358Z,388.13
2023-02-01T09:35:37.359Z,354.38
2023-02-01T09:36:37.080Z,343.13
2023-02-01T09:37:37.173Z,365.63
2023-02-01T09:38:41.722Z,360.00
2023-02-01T09:39:37.184Z,382.50
2023-02-01T09:40:36.859Z,455.63
2023-02-01T09:41:36.833Z,528.75
2023-02-01T09:42:37.000Z,534.38
2023-02-01T09:43:36.708Z,545.63
2023-02-01T09:44:43.796Z,568.13
2023-02-01T09:45:36.627Z,579.38
2023-02-01T09:46:36.889Z,635.63
2023-02-01T09:47:36.692Z,624.38
2023-02-01T09:48:36.662Z,579.38
2023-02-01T09:49:36.419Z,556.88
2023-02-01T09:50:36.672Z,618.75
2023-02-01T09:51:36.405Z,630.00
2023-02-01T09:52:36.592Z,534.38
2023-02-01T09:53:36.273Z,590.63
2023-02-01T09:54:36.465Z,658.13
2023-02-01T09:55:36.150Z,663.75
2023-02-01T09:56:36.303Z,675.00
2023-02-01T09:57:36.050Z,686.25
2023-02-01T09:58:36.249Z,725.63
2023-02-01T09:59:36.024Z,911.25
2023-02-01T10:00:36.137Z,1035.00
2023-02-01T10:01:35.945Z,995.63
2023-02-01T10:02:36.097Z,888.75
2023-02-01T10:03:36.021Z,838.13
2023-02-01T10:04:35.715Z,759.38
2023-02-01T10:05:35.677Z,669.38
2023-02-01T10:06:35.849Z,708.75
2023-02-01T10:07:35.577Z,714.38
2023-02-01T10:08:35.656Z,703.13
2023-02-01T10:09:35.506Z,731.25
2023-02-01T10:10:35.434Z,725.63
2023-02-01T10:11:35.474Z,697.50
2023-02-01T10:12:35.342Z,686.25
2023-02-01T10:13:35.490Z,624.38
2023-02-01T10:14:35.274Z,585.00
2023-02-01T10:15:35.561Z,495.00
2023-02-01T10:16:35.262Z,478.13
2023-02-01T10:17:35.313Z,607.50
2023-02-01T10:18:35.071Z,697.50
2023-02-01T10:19:35.129Z,568.13
2023-02-01T10:20:34.971Z,495.00
2023-02-01T10:21:34.952Z,399.38
2023-02-01T10:22:59.024Z,320.63
2023-02-01T10:23:35.037Z,337.50
2023-02-01T10:24:35.063Z,326.25
2023-02-01T10:25:34.745Z,320.63
2023-02-01T10:26:34.924Z,326.25
2023-02-01T10:27:34.935Z,343.13
2023-02-01T10:28:34.894Z,365.63
2023-02-01T10:29:34.567Z,376.88
2023-02-01T10:30:35.633Z,382.50
2023-02-01T10:31:34.604Z,376.88
2023-02-01T10:32:34.707Z,360.00
2023-02-01T10:33:34.403Z,337.50
2023-02-01T10:34:34.517Z,371.25
2023-02-01T10:35:34.284Z,410.63
2023-02-01T10:36:34.327Z,371.25
2023-02-01T10:37:34.201Z,331.88
2023-02-01T10:38:34.133Z,382.50
2023-02-01T10:39:34.090Z,433.13
2023-02-01T10:40:35.205Z,523.13
2023-02-01T10:41:33.988Z,562.50
2023-02-01T10:42:34.164Z,551.25
2023-02-01T10:43:34.017Z,511.88
2023-02-01T10:44:33.852Z,517.50
2023-02-01T10:45:33.999Z,590.63
2023-02-01T10:46:33.836Z,669.38
2023-02-01T10:47:34.013Z,753.75
2023-02-01T10:48:33.689Z,736.88
2023-02-01T10:49:33.836Z,725.63
2023-02-01T10:50:33.561Z,748.13
2023-02-01T10:51:33.618Z,843.75
2023-02-01T10:52:33.470Z,832.50
2023-02-01T10:53:33.629Z,759.38
2023-02-01T10:54:33.694Z,849.38
2023-02-01T10:55:33.329Z,1113.75
2023-02-01T10:56:33.280Z,1113.75
2023-02-01T10:57:33.358Z,1558.13
2023-02-01T10:58:33.191Z,1321.88
2023-02-01T10:59:34.424Z,1085.63
2023-02-01T11:00:33.088Z,1906.88
2023-02-01T11:01:33.260Z,1687.50
2023-02-01T11:02:33.230Z,1271.25
2023-02-01T11:03:32.971Z,2548.13
2023-02-01T11:04:33.219Z,1305.00
2023-02-01T11:05:32.863Z,1119.38
2023-02-01T11:06:34.040Z,1248.75
2023-02-01T11:07:32.775Z,1445.63
2023-02-01T11:08:32.941Z,2356.88
2023-02-01T11:09:32.885Z,2615.63
2023-02-01T11:10:32.839Z,2154.38
2023-02-01T11:11:32.592Z,2581.88
2023-02-01T11:12:32.548Z,2700.00
2023-02-01T11:13:32.512Z,2700.00
2023-02-01T11:14:32.665Z,1687.50
2023-02-01T11:15:32.418Z,894.38
2023-02-01T11:16:32.714Z,2756.25
2023-02-01T11:17:32.328Z,1603.13
2023-02-01T11:18:32.331Z,3200.63
2023-02-01T11:19:32.545Z,3285.00
2023-02-01T11:20:32.502Z,3273.75
2023-02-01T11:21:32.161Z,3296.25
2023-02-01T11:22:32.314Z,2919.38
2023-02-01T11:23:32.110Z,2025.00
2023-02-01T11:24:32.040Z,3583.13
2023-02-01T11:25:32.128Z,2536.88
2023-02-01T11:26:31.959Z,3493.13
2023-02-01T11:27:33.352Z,1344.38
2023-02-01T11:28:31.864Z,3155.63
2023-02-01T11:29:32.107Z,3178.13
2023-02-01T11:30:31.818Z,3031.88
2023-02-01T11:31:31.899Z,3009.38
2023-02-01T11:32:31.695Z,2902.50
2023-02-01T11:33:31.887Z,2801.25
2023-02-01T11:34:31.620Z,2739.38
2023-02-01T11:35:31.603Z,2632.50
2023-02-01T11:36:31.809Z,2784.38
2023-02-01T11:37:31.501Z,2975.63
2023-02-01T11:38:31.644Z,2908.13
2023-02-01T11:39:31.680Z,2705.63
2023-02-01T11:40:31.624Z,2643.75
2023-02-01T11:41:31.341Z,2604.38
2023-02-01T11:42:31.445Z,2660.63
2023-02-01T11:43:32.423Z,2756.25
2023-02-01T11:44:31.352Z,2846.25
2023-02-01T11:45:31.208Z,2947.50
2023-02-01T11:46:31.151Z,2947.50
2023-02-01T11:47:31.113Z,2925.00
2023-02-01T11:48:31.377Z,2936.25
2023-02-01T11:49:32.258Z,3026.25
2023-02-01T11:50:31.093Z,3009.38
2023-02-01T11:51:30.953Z,1006.88
2023-02-01T11:52:30.948Z,849.38
2023-02-01T11:53:30.872Z,2936.25
2023-02-01T11:54:31.118Z,2778.75
2023-02-01T11:55:30.791Z,2272.50
2023-02-01T11:56:31.040Z,1254.38
2023-02-01T11:57:30.710Z,911.25
2023-02-01T11:58:30.676Z,804.38
2023-02-01T11:59:32.698Z,815.63
2023-02-01T12:00:30.609Z,720.00
2023-02-01T12:01:30.779Z,568.13
2023-02-01T12:02:30.537Z,573.75
2023-02-01T12:03:30.660Z,2716.88
2023-02-01T12:04:30.432Z,2745.00
2023-02-01T12:05:30.588Z,2750.63
2023-02-01T12:06:30.346Z,2728.13
2023-02-01T12:07:30.604Z,2525.63
2023-02-01T12:08:30.262Z,2587.50
2023-02-01T12:09:30.217Z,1181.25
2023-02-01T12:10:30.413Z,2019.38
2023-02-01T12:11:30.145Z,2700.00
2023-02-01T12:12:30.223Z,2626.88
2023-02-01T12:13:30.283Z,2649.38
2023-02-01T12:14:30.239Z,2750.63
2023-02-01T12:15:29.974Z,1496.25
2023-02-01T12:16:30.086Z,2795.63
2023-02-01T12:17:29.896Z,2896.88
2023-02-01T12:18:31.095Z,2975.63
2023-02-01T12:19:29.831Z,1158.75
2023-02-01T12:20:29.770Z,1890.00
2023-02-01T12:21:29.729Z,2227.50
2023-02-01T12:22:29.990Z,1963.13
2023-02-01T12:23:29.651Z,1552.50
2023-02-01T12:24:29.802Z,1518.75
2023-02-01T12:25:29.863Z,1614.38
2023-02-01T12:26:29.591Z,1530.00
2023-02-01T12:27:30.109Z,1428.75
2023-02-01T12:28:29.631Z,1721.25
2023-02-01T12:29:29.398Z,2896.88
2023-02-01T12:30:29.734Z,2863.13
2023-02-01T12:31:29.407Z,2801.25
2023-02-01T12:32:29.448Z,2733.75
2023-02-01T12:33:29.238Z,2621.25
2023-02-01T12:34:31.505Z,2587.50
2023-02-01T12:35:29.155Z,2548.13
2023-02-01T12:36:29.275Z,2491.88
2023-02-01T12:37:29.541Z,2441.25
2023-02-01T12:38:29.283Z,2463.75
2023-02-01T12:39:28.994Z,2441.25
2023-02-01T12:40:29.097Z,2401.88
2023-02-01T12:41:28.910Z,2323.13
2023-02-01T12:42:29.108Z,1884.38
2023-02-01T12:43:28.862Z,2649.38
2023-02-01T12:44:28.920Z,843.75
2023-02-01T12:45:28.828Z,2328.75
2023-02-01T12:46:30.162Z,1243.13
2023-02-01T12:47:28.676Z,1608.75
2023-02-01T12:48:28.658Z,1440.00
2023-02-01T12:49:28.761Z,1113.75
2023-02-01T12:50:28.543Z,2311.88
2023-02-01T12:51:29.788Z,2351.25
2023-02-01T12:52:28.474Z,2300.63
2023-02-01T12:53:28.573Z,2266.88
2023-02-01T12:54:28.583Z,1170.00
2023-02-01T12:55:28.357Z,2334.38
2023-02-01T12:56:28.599Z,2536.88
2023-02-01T12:57:28.257Z,2604.38
2023-02-01T12:58:28.610Z,1631.25